sensor_id;sensor_type;location;lat;lon;timestamp;P1;durP1;ratioP1;P2;durP2;ratioP2
49876;SDS011;35771;48.978;9.294;2022-09-12T00:00:22;7.60;;;5.43;;
49876;SDS011;35771;48.978;9.294;2022-09-12T00:02:50;6.10;;;4.70;;
49876;SDS011;35771;48.978;9.294;2022-09-12T00:05:17;7.28;;;5.45;;
49876;SDS011;35771;48.978;9.294;2022-09-12T00:07:45;8.75;;;5.65;;
49876;SDS011;35771;48.978;9.294;2022-09-12T00:10:12;8.88;;;5.55;;
49876;SDS011;35771;48.978;9.294;2022-09-12T00:12:39;8.65;;;4.90;;
49876;SDS011;35771;48.978;9.294;2022-09-12T00:15:06;10.75;;;5.72;;
49876;SDS011;35771;48.978;9.294;2022-09-12T00:17:33;8.18;;;5.03;;
49876;SDS011;35771;48.978;9.294;2022-09-12T00:20:00;11.63;;;5.55;;
49876;SDS011;35771;48.978;9.294;2022-09-12T00:22:28;10.45;;;5.22;;
49876;SDS011;35771;48.978;9.294;2022-09-12T00:24:55;7.03;;;5.15;;
49876;SDS011;35771;48.978;9.294;2022-09-12T00:27:22;10.35;;;6.35;;
49876;SDS011;35771;48.978;9.294;2022-09-12T00:29:48;6.20;;;5.38;;
49876;SDS011;35771;48.978;9.294;2022-09-12T00:32:15;9.07;;;5.68;;
49876;SDS011;35771;48.978;9.294;2022-09-12T00:34:42;7.03;;;5.05;;
49876;SDS011;35771;48.978;9.294;2022-09-12T00:37:08;8.98;;;5.10;;
49876;SDS011;35771;48.978;9.294;2022-09-12T00:39:34;7.57;;;5.63;;
49876;SDS011;35771;48.978;9.294;2022-09-12T00:42:02;8.52;;;5.60;;
49876;SDS011;35771;48.978;9.294;2022-09-12T00:44:41;7.10;;;5.00;;
49876;SDS011;35771;48.978;9.294;2022-09-12T00:47:12;7.30;;;5.25;;
49876;SDS011;35771;48.978;9.294;2022-09-12T00:49:43;11.80;;;5.50;;
49876;SDS011;35771;48.978;9.294;2022-09-12T00:52:15;12.60;;;5.13;;
49876;SDS011;35771;48.978;9.294;2022-09-12T00:54:45;7.03;;;5.00;;
49876;SDS011;35771;48.978;9.294;2022-09-12T00:59:43;6.15;;;4.90;;
49876;SDS011;35771;48.978;9.294;2022-09-12T01:02:14;8.55;;;5.20;;
49876;SDS011;35771;48.978;9.294;2022-09-12T01:04:41;8.98;;;5.55;;
49876;SDS011;35771;48.978;9.294;2022-09-12T01:07:09;7.88;;;5.38;;
49876;SDS011;35771;48.978;9.294;2022-09-12T01:09:40;10.30;;;5.90;;
49876;SDS011;35771;48.978;9.294;2022-09-12T01:12:08;7.25;;;5.20;;
49876;SDS011;35771;48.978;9.294;2022-09-12T01:14:36;9.32;;;5.80;;
49876;SDS011;35771;48.978;9.294;2022-09-12T01:17:04;6.90;;;5.30;;
49876;SDS011;35771;48.978;9.294;2022-09-12T01:22:33;7.95;;;5.18;;
49876;SDS011;35771;48.978;9.294;2022-09-12T01:25:19;10.20;;;5.22;;
49876;SDS011;35771;48.978;9.294;2022-09-12T01:27:58;7.10;;;5.15;;
49876;SDS011;35771;48.978;9.294;2022-09-12T01:30:47;5.65;;;4.38;;
49876;SDS011;35771;48.978;9.294;2022-09-12T01:33:25;9.30;;;4.63;;
49876;SDS011;35771;48.978;9.294;2022-09-12T01:36:04;8.77;;;5.32;;
49876;SDS011;35771;48.978;9.294;2022-09-12T01:38:48;9.20;;;4.60;;
49876;SDS011;35771;48.978;9.294;2022-09-12T01:41:23;10.02;;;4.93;;
49876;SDS011;35771;48.978;9.294;2022-09-12T01:43:56;10.55;;;5.28;;
49876;SDS011;35771;48.978;9.294;2022-09-12T01:46:31;6.60;;;4.97;;
49876;SDS011;35771;48.978;9.294;2022-09-12T01:49:05;7.57;;;4.65;;
49876;SDS011;35771;48.978;9.294;2022-09-12T01:51:38;8.13;;;5.63;;
49876;SDS011;35771;48.978;9.294;2022-09-12T01:54:10;6.30;;;5.00;;
49876;SDS011;35771;48.978;9.294;2022-09-12T01:56:42;8.90;;;5.53;;
49876;SDS011;35771;48.978;9.294;2022-09-12T01:59:12;7.20;;;5.07;;
49876;SDS011;35771;48.978;9.294;2022-09-12T02:01:45;7.20;;;4.93;;
49876;SDS011;35771;48.978;9.294;2022-09-12T02:04:19;8.02;;;4.93;;
49876;SDS011;35771;48.978;9.294;2022-09-12T02:06:48;6.70;;;4.97;;
49876;SDS011;35771;48.978;9.294;2022-09-12T02:09:18;5.35;;;4.82;;
49876;SDS011;35771;48.978;9.294;2022-09-12T02:11:48;6.80;;;5.55;;
49876;SDS011;35771;48.978;9.294;2022-09-12T02:14:19;10.82;;;4.88;;
49876;SDS011;35771;48.978;9.294;2022-09-12T02:19:18;8.52;;;4.95;;
49876;SDS011;35771;48.978;9.294;2022-09-12T02:21:49;8.02;;;5.05;;
49876;SDS011;35771;48.978;9.294;2022-09-12T02:24:18;9.57;;;4.97;;
49876;SDS011;35771;48.978;9.294;2022-09-12T02:26:48;7.63;;;5.20;;
49876;SDS011;35771;48.978;9.294;2022-09-12T02:29:19;7.82;;;5.13;;
49876;SDS011;35771;48.978;9.294;2022-09-12T02:31:46;7.47;;;5.38;;
49876;SDS011;35771;48.978;9.294;2022-09-12T02:34:24;7.78;;;4.95;;
49876;SDS011;35771;48.978;9.294;2022-09-12T02:36:57;8.70;;;4.70;;
49876;SDS011;35771;48.978;9.294;2022-09-12T02:39:31;9.75;;;4.75;;
49876;SDS011;35771;48.978;9.294;2022-09-12T02:41:59;6.20;;;4.85;;
49876;SDS011;35771;48.978;9.294;2022-09-12T02:44:29;7.90;;;4.97;;
49876;SDS011;35771;48.978;9.294;2022-09-12T02:46:59;7.47;;;5.55;;
49876;SDS011;35771;48.978;9.294;2022-09-12T02:49:31;7.63;;;5.43;;
49876;SDS011;35771;48.978;9.294;2022-09-12T02:51:58;7.35;;;5.63;;
49876;SDS011;35771;48.978;9.294;2022-09-12T02:54:27;6.28;;;4.78;;
49876;SDS011;35771;48.978;9.294;2022-09-12T02:56:54;7.43;;;5.20;;
49876;SDS011;35771;48.978;9.294;2022-09-12T02:59:21;7.97;;;5.60;;
49876;SDS011;35771;48.978;9.294;2022-09-12T03:01:56;7.65;;;5.13;;
49876;SDS011;35771;48.978;9.294;2022-09-12T03:04:36;8.55;;;5.00;;
49876;SDS011;35771;48.978;9.294;2022-09-12T03:07:13;9.85;;;4.90;;
49876;SDS011;35771;48.978;9.294;2022-09-12T03:09:46;9.30;;;5.93;;
49876;SDS011;35771;48.978;9.294;2022-09-12T03:12:24;10.75;;;4.68;;
49876;SDS011;35771;48.978;9.294;2022-09-12T03:18:00;9.88;;;5.07;;
49876;SDS011;35771;48.978;9.294;2022-09-12T03:20:39;7.75;;;4.80;;
49876;SDS011;35771;48.978;9.294;2022-09-12T03:23:13;8.20;;;5.53;;
49876;SDS011;35771;48.978;9.294;2022-09-12T03:25:48;10.50;;;5.18;;
49876;SDS011;35771;48.978;9.294;2022-09-12T03:28:20;10.93;;;5.35;;
49876;SDS011;35771;48.978;9.294;2022-09-12T03:30:48;7.72;;;5.22;;
49876;SDS011;35771;48.978;9.294;2022-09-12T03:33:18;8.93;;;5.28;;
49876;SDS011;35771;48.978;9.294;2022-09-12T03:35:47;11.50;;;5.30;;
49876;SDS011;35771;48.978;9.294;2022-09-12T03:38:15;7.43;;;5.70;;
49876;SDS011;35771;48.978;9.294;2022-09-12T03:40:41;9.25;;;5.13;;
49876;SDS011;35771;48.978;9.294;2022-09-12T03:43:08;10.10;;;5.90;;
49876;SDS011;35771;48.978;9.294;2022-09-12T03:45:35;15.77;;;7.60;;
49876;SDS011;35771;48.978;9.294;2022-09-12T03:48:02;11.30;;;7.95;;
49876;SDS011;35771;48.978;9.294;2022-09-12T03:50:29;9.88;;;5.75;;
49876;SDS011;35771;48.978;9.294;2022-09-12T03:52:58;7.57;;;5.22;;
49876;SDS011;35771;48.978;9.294;2022-09-12T03:55:25;10.57;;;5.50;;
49876;SDS011;35771;48.978;9.294;2022-09-12T03:57:51;8.48;;;5.50;;
49876;SDS011;35771;48.978;9.294;2022-09-12T04:00:18;6.63;;;5.38;;
49876;SDS011;35771;48.978;9.294;2022-09-12T04:02:44;8.98;;;5.72;;
49876;SDS011;35771;48.978;9.294;2022-09-12T04:05:11;7.70;;;5.60;;
49876;SDS011;35771;48.978;9.294;2022-09-12T04:07:40;8.23;;;5.37;;
49876;SDS011;35771;48.978;9.294;2022-09-12T04:10:08;8.40;;;5.68;;
49876;SDS011;35771;48.978;9.294;2022-09-12T04:12:35;6.20;;;5.03;;
49876;SDS011;35771;48.978;9.294;2022-09-12T04:15:03;17.60;;;5.60;;
49876;SDS011;35771;48.978;9.294;2022-09-12T04:17:32;7.60;;;5.00;;
49876;SDS011;35771;48.978;9.294;2022-09-12T04:19:59;11.38;;;5.97;;
49876;SDS011;35771;48.978;9.294;2022-09-12T04:22:26;10.05;;;5.57;;
49876;SDS011;35771;48.978;9.294;2022-09-12T04:24:53;11.15;;;4.88;;
49876;SDS011;35771;48.978;9.294;2022-09-12T04:27:21;7.95;;;5.38;;
49876;SDS011;35771;48.978;9.294;2022-09-12T04:29:48;7.32;;;5.63;;
49876;SDS011;35771;48.978;9.294;2022-09-12T04:32:14;7.20;;;4.93;;
49876;SDS011;35771;48.978;9.294;2022-09-12T04:34:41;7.22;;;4.97;;
49876;SDS011;35771;48.978;9.294;2022-09-12T04:37:08;7.70;;;5.50;;
49876;SDS011;35771;48.978;9.294;2022-09-12T04:39:35;6.75;;;5.22;;
49876;SDS011;35771;48.978;9.294;2022-09-12T04:42:02;8.02;;;5.35;;
49876;SDS011;35771;48.978;9.294;2022-09-12T04:44:30;7.13;;;5.38;;
49876;SDS011;35771;48.978;9.294;2022-09-12T04:46:56;8.98;;;5.45;;
49876;SDS011;35771;48.978;9.294;2022-09-12T04:49:23;7.40;;;5.75;;
49876;SDS011;35771;48.978;9.294;2022-09-12T04:51:51;10.85;;;5.57;;
49876;SDS011;35771;48.978;9.294;2022-09-12T04:54:19;10.48;;;5.88;;
49876;SDS011;35771;48.978;9.294;2022-09-12T04:56:46;7.55;;;5.15;;
49876;SDS011;35771;48.978;9.294;2022-09-12T04:59:15;10.02;;;6.07;;
49876;SDS011;35771;48.978;9.294;2022-09-12T05:01:44;8.73;;;6.22;;
49876;SDS011;35771;48.978;9.294;2022-09-12T05:04:11;10.13;;;6.15;;
49876;SDS011;35771;48.978;9.294;2022-09-12T05:06:38;9.18;;;6.35;;
49876;SDS011;35771;48.978;9.294;2022-09-12T05:09:07;10.48;;;6.25;;
49876;SDS011;35771;48.978;9.294;2022-09-12T05:11:37;11.65;;;5.70;;
49876;SDS011;35771;48.978;9.294;2022-09-12T05:14:04;13.23;;;6.95;;
49876;SDS011;35771;48.978;9.294;2022-09-12T05:16:32;8.25;;;6.00;;
49876;SDS011;35771;48.978;9.294;2022-09-12T05:19:00;7.90;;;6.22;;
49876;SDS011;35771;48.978;9.294;2022-09-12T05:21:26;9.73;;;6.72;;
49876;SDS011;35771;48.978;9.294;2022-09-12T05:23:53;7.70;;;5.75;;
49876;SDS011;35771;48.978;9.294;2022-09-12T05:26:23;9.57;;;6.05;;
49876;SDS011;35771;48.978;9.294;2022-09-12T05:28:50;10.98;;;5.95;;
49876;SDS011;35771;48.978;9.294;2022-09-12T05:31:18;16.35;;;6.57;;
49876;SDS011;35771;48.978;9.294;2022-09-12T05:33:46;13.40;;;6.07;;
49876;SDS011;35771;48.978;9.294;2022-09-12T05:36:16;9.48;;;6.55;;
49876;SDS011;35771;48.978;9.294;2022-09-12T05:38:44;10.35;;;5.82;;
49876;SDS011;35771;48.978;9.294;2022-09-12T05:41:12;13.35;;;6.18;;
49876;SDS011;35771;48.978;9.294;2022-09-12T05:43:39;7.80;;;5.65;;
49876;SDS011;35771;48.978;9.294;2022-09-12T05:46:08;9.00;;;6.10;;
49876;SDS011;35771;48.978;9.294;2022-09-12T05:48:37;10.27;;;6.30;;
49876;SDS011;35771;48.978;9.294;2022-09-12T05:51:04;10.00;;;5.95;;
49876;SDS011;35771;48.978;9.294;2022-09-12T05:53:34;9.20;;;6.22;;
49876;SDS011;35771;48.978;9.294;2022-09-12T05:56:06;9.60;;;6.38;;
49876;SDS011;35771;48.978;9.294;2022-09-12T05:58:34;13.35;;;6.82;;
49876;SDS011;35771;48.978;9.294;2022-09-12T06:01:02;14.02;;;8.57;;
49876;SDS011;35771;48.978;9.294;2022-09-12T06:03:33;8.95;;;6.95;;
49876;SDS011;35771;48.978;9.294;2022-09-12T06:06:01;12.00;;;7.78;;
49876;SDS011;35771;48.978;9.294;2022-09-12T06:08:29;9.38;;;6.38;;
49876;SDS011;35771;48.978;9.294;2022-09-12T06:11:02;11.93;;;7.15;;
49876;SDS011;35771;48.978;9.294;2022-09-12T06:13:30;9.55;;;7.53;;
49876;SDS011;35771;48.978;9.294;2022-09-12T06:16:03;10.32;;;7.15;;
49876;SDS011;35771;48.978;9.294;2022-09-12T06:18:32;12.95;;;7.50;;
49876;SDS011;35771;48.978;9.294;2022-09-12T06:21:01;11.77;;;7.38;;
49876;SDS011;35771;48.978;9.294;2022-09-12T06:23:28;12.13;;;7.60;;
49876;SDS011;35771;48.978;9.294;2022-09-12T06:25:54;16.77;;;9.23;;
49876;SDS011;35771;48.978;9.294;2022-09-12T06:28:22;14.40;;;9.10;;
49876;SDS011;35771;48.978;9.294;2022-09-12T06:30:49;11.95;;;7.57;;
49876;SDS011;35771;48.978;9.294;2022-09-12T06:33:16;11.80;;;7.63;;
49876;SDS011;35771;48.978;9.294;2022-09-12T06:35:43;15.32;;;7.85;;
49876;SDS011;35771;48.978;9.294;2022-09-12T06:38:09;15.07;;;7.45;;
49876;SDS011;35771;48.978;9.294;2022-09-12T06:40:39;11.82;;;7.85;;
49876;SDS011;35771;48.978;9.294;2022-09-12T06:43:08;13.30;;;8.18;;
49876;SDS011;35771;48.978;9.294;2022-09-12T06:45:36;15.23;;;8.55;;
49876;SDS011;35771;48.978;9.294;2022-09-12T06:48:02;16.45;;;8.30;;
49876;SDS011;35771;48.978;9.294;2022-09-12T06:50:29;12.93;;;8.13;;
49876;SDS011;35771;48.978;9.294;2022-09-12T06:52:56;11.00;;;8.35;;
49876;SDS011;35771;48.978;9.294;2022-09-12T06:55:22;14.55;;;7.80;;
49876;SDS011;35771;48.978;9.294;2022-09-12T06:57:49;11.32;;;7.65;;
49876;SDS011;35771;48.978;9.294;2022-09-12T07:00:16;11.00;;;7.40;;
49876;SDS011;35771;48.978;9.294;2022-09-12T07:02:44;10.10;;;6.90;;
49876;SDS011;35771;48.978;9.294;2022-09-12T07:05:10;14.65;;;6.95;;
49876;SDS011;35771;48.978;9.294;2022-09-12T07:07:37;13.65;;;6.72;;
49876;SDS011;35771;48.978;9.294;2022-09-12T07:10:04;13.45;;;6.75;;
49876;SDS011;35771;48.978;9.294;2022-09-12T07:12:31;16.77;;;6.78;;
49876;SDS011;35771;48.978;9.294;2022-09-12T07:14:58;13.30;;;7.45;;
49876;SDS011;35771;48.978;9.294;2022-09-12T07:17:25;22.58;;;8.65;;
49876;SDS011;35771;48.978;9.294;2022-09-12T07:19:53;12.93;;;6.97;;
49876;SDS011;35771;48.978;9.294;2022-09-12T07:22:19;10.82;;;7.45;;
49876;SDS011;35771;48.978;9.294;2022-09-12T07:24:46;15.48;;;6.90;;
49876;SDS011;35771;48.978;9.294;2022-09-12T07:27:12;11.98;;;8.07;;
49876;SDS011;35771;48.978;9.294;2022-09-12T07:29:39;11.45;;;7.07;;
49876;SDS011;35771;48.978;9.294;2022-09-12T07:32:05;10.43;;;6.72;;
49876;SDS011;35771;48.978;9.294;2022-09-12T07:34:33;16.13;;;7.82;;
49876;SDS011;35771;48.978;9.294;2022-09-12T07:37:01;11.23;;;7.30;;
49876;SDS011;35771;48.978;9.294;2022-09-12T07:39:28;15.73;;;7.55;;
49876;SDS011;35771;48.978;9.294;2022-09-12T07:41:55;13.57;;;7.07;;
49876;SDS011;35771;48.978;9.294;2022-09-12T07:44:21;17.42;;;8.65;;
49876;SDS011;35771;48.978;9.294;2022-09-12T07:46:48;15.63;;;8.20;;
49876;SDS011;35771;48.978;9.294;2022-09-12T07:49:16;20.30;;;9.27;;
49876;SDS011;35771;48.978;9.294;2022-09-12T07:51:43;15.57;;;10.60;;
49876;SDS011;35771;48.978;9.294;2022-09-12T07:54:11;12.20;;;8.30;;
49876;SDS011;35771;48.978;9.294;2022-09-12T07:56:37;14.77;;;8.32;;
49876;SDS011;35771;48.978;9.294;2022-09-12T07:59:04;11.18;;;7.28;;
49876;SDS011;35771;48.978;9.294;2022-09-12T08:04:55;10.88;;;6.03;;
49876;SDS011;35771;48.978;9.294;2022-09-12T08:07:21;9.57;;;6.18;;
49876;SDS011;35771;48.978;9.294;2022-09-12T08:09:49;10.05;;;7.05;;
49876;SDS011;35771;48.978;9.294;2022-09-12T08:12:17;9.70;;;6.25;;
49876;SDS011;35771;48.978;9.294;2022-09-12T08:14:44;8.10;;;6.18;;
49876;SDS011;35771;48.978;9.294;2022-09-12T08:17:12;10.85;;;5.75;;
49876;SDS011;35771;48.978;9.294;2022-09-12T08:19:39;7.60;;;5.80;;
49876;SDS011;35771;48.978;9.294;2022-09-12T08:22:05;8.20;;;5.78;;
49876;SDS011;35771;48.978;9.294;2022-09-12T08:24:32;9.68;;;6.18;;
49876;SDS011;35771;48.978;9.294;2022-09-12T08:27:00;22.02;;;6.95;;
49876;SDS011;35771;48.978;9.294;2022-09-12T08:29:26;8.43;;;5.97;;
49876;SDS011;35771;48.978;9.294;2022-09-12T08:31:54;10.02;;;6.50;;
49876;SDS011;35771;48.978;9.294;2022-09-12T08:34:20;7.68;;;5.72;;
49876;SDS011;35771;48.978;9.294;2022-09-12T08:36:48;7.93;;;5.90;;
49876;SDS011;35771;48.978;9.294;2022-09-12T08:39:15;7.25;;;5.65;;
49876;SDS011;35771;48.978;9.294;2022-09-12T08:41:42;10.35;;;6.00;;
49876;SDS011;35771;48.978;9.294;2022-09-12T08:44:20;6.88;;;5.93;;
49876;SDS011;35771;48.978;9.294;2022-09-12T08:47:07;8.55;;;5.15;;
49876;SDS011;35771;48.978;9.294;2022-09-12T08:49:44;10.40;;;6.82;;
49876;SDS011;35771;48.978;9.294;2022-09-12T08:52:18;9.10;;;5.60;;
49876;SDS011;35771;48.978;9.294;2022-09-12T08:54:49;9.77;;;6.10;;
49876;SDS011;35771;48.978;9.294;2022-09-12T08:57:15;6.30;;;4.72;;
49876;SDS011;35771;48.978;9.294;2022-09-12T08:59:44;7.68;;;5.18;;
49876;SDS011;35771;48.978;9.294;2022-09-12T09:02:19;8.13;;;4.88;;
49876;SDS011;35771;48.978;9.294;2022-09-12T09:05:00;5.40;;;4.47;;
49876;SDS011;35771;48.978;9.294;2022-09-12T09:07:45;6.90;;;4.30;;
49876;SDS011;35771;48.978;9.294;2022-09-12T09:10:26;5.05;;;4.38;;
49876;SDS011;35771;48.978;9.294;2022-09-12T09:13:03;5.57;;;4.32;;
49876;SDS011;35771;48.978;9.294;2022-09-12T09:16:04;6.15;;;4.50;;
49876;SDS011;35771;48.978;9.294;2022-09-12T09:18:37;6.18;;;3.90;;
49876;SDS011;35771;48.978;9.294;2022-09-12T09:21:18;9.63;;;4.60;;
49876;SDS011;35771;48.978;9.294;2022-09-12T09:23:49;5.07;;;4.30;;
49876;SDS011;35771;48.978;9.294;2022-09-12T09:26:25;9.32;;;3.55;;
49876;SDS011;35771;48.978;9.294;2022-09-12T09:28:58;3.88;;;3.47;;
49876;SDS011;35771;48.978;9.294;2022-09-12T09:31:32;4.88;;;3.63;;
49876;SDS011;35771;48.978;9.294;2022-09-12T09:34:04;6.35;;;3.65;;
49876;SDS011;35771;48.978;9.294;2022-09-12T09:36:39;4.18;;;3.20;;
49876;SDS011;35771;48.978;9.294;2022-09-12T09:39:15;4.30;;;3.78;;
49876;SDS011;35771;48.978;9.294;2022-09-12T09:41:53;4.13;;;3.20;;
49876;SDS011;35771;48.978;9.294;2022-09-12T09:44:32;3.38;;;3.05;;
49876;SDS011;35771;48.978;9.294;2022-09-12T09:47:00;5.30;;;3.10;;
49876;SDS011;35771;48.978;9.294;2022-09-12T09:49:28;5.28;;;3.55;;
49876;SDS011;35771;48.978;9.294;2022-09-12T09:51:57;4.90;;;3.42;;
49876;SDS011;35771;48.978;9.294;2022-09-12T09:54:25;5.32;;;4.13;;
49876;SDS011;35771;48.978;9.294;2022-09-12T09:56:59;4.57;;;2.72;;
49876;SDS011;35771;48.978;9.294;2022-09-12T09:59:27;3.88;;;3.25;;
49876;SDS011;35771;48.978;9.294;2022-09-12T10:01:55;7.23;;;3.37;;
49876;SDS011;35771;48.978;9.294;2022-09-12T10:04:29;6.60;;;3.30;;
49876;SDS011;35771;48.978;9.294;2022-09-12T10:06:58;3.85;;;3.08;;
49876;SDS011;35771;48.978;9.294;2022-09-12T10:09:26;6.70;;;3.00;;
49876;SDS011;35771;48.978;9.294;2022-09-12T10:11:57;3.17;;;2.75;;
49876;SDS011;35771;48.978;9.294;2022-09-12T10:14:34;3.53;;;2.60;;
49876;SDS011;35771;48.978;9.294;2022-09-12T10:17:19;5.40;;;2.50;;
49876;SDS011;35771;48.978;9.294;2022-09-12T10:19:50;3.30;;;2.42;;
49876;SDS011;35771;48.978;9.294;2022-09-12T10:22:18;3.35;;;2.70;;
49876;SDS011;35771;48.978;9.294;2022-09-12T10:24:48;3.00;;;2.30;;
49876;SDS011;35771;48.978;9.294;2022-09-12T10:27:17;3.90;;;2.75;;
49876;SDS011;35771;48.978;9.294;2022-09-12T10:29:46;3.38;;;2.50;;
49876;SDS011;35771;48.978;9.294;2022-09-12T10:34:53;4.22;;;2.58;;
49876;SDS011;35771;48.978;9.294;2022-09-12T10:37:34;2.92;;;2.50;;
49876;SDS011;35771;48.978;9.294;2022-09-12T10:40:03;4.78;;;2.25;;
49876;SDS011;35771;48.978;9.294;2022-09-12T10:42:43;3.37;;;2.30;;
49876;SDS011;35771;48.978;9.294;2022-09-12T10:45:26;2.72;;;2.47;;
49876;SDS011;35771;48.978;9.294;2022-09-12T10:47:54;4.00;;;2.40;;
49876;SDS011;35771;48.978;9.294;2022-09-12T10:50:27;4.80;;;2.10;;
49876;SDS011;35771;48.978;9.294;2022-09-12T10:53:11;4.72;;;1.95;;
49876;SDS011;35771;48.978;9.294;2022-09-12T10:55:40;3.65;;;2.20;;
49876;SDS011;35771;48.978;9.294;2022-09-12T10:58:29;3.35;;;2.30;;
49876;SDS011;35771;48.978;9.294;2022-09-12T11:01:17;2.80;;;2.08;;
49876;SDS011;35771;48.978;9.294;2022-09-12T11:03:58;3.10;;;2.50;;
49876;SDS011;35771;48.978;9.294;2022-09-12T11:06:40;3.38;;;2.20;;
49876;SDS011;35771;48.978;9.294;2022-09-12T11:09:14;8.02;;;1.80;;
49876;SDS011;35771;48.978;9.294;2022-09-12T11:11:53;2.45;;;1.60;;
49876;SDS011;35771;48.978;9.294;2022-09-12T11:14:37;1.80;;;1.40;;
49876;SDS011;35771;48.978;9.294;2022-09-12T11:17:18;3.83;;;1.70;;
49876;SDS011;35771;48.978;9.294;2022-09-12T11:23:01;1.83;;;1.55;;
49876;SDS011;35771;48.978;9.294;2022-09-12T11:25:48;1.98;;;1.45;;
49876;SDS011;35771;48.978;9.294;2022-09-12T11:28:27;2.03;;;1.55;;
49876;SDS011;35771;48.978;9.294;2022-09-12T11:31:04;1.50;;;1.40;;
49876;SDS011;35771;48.978;9.294;2022-09-12T11:33:44;2.30;;;1.27;;
49876;SDS011;35771;48.978;9.294;2022-09-12T11:36:15;1.30;;;1.20;;
49876;SDS011;35771;48.978;9.294;2022-09-12T11:38:58;1.75;;;1.10;;
49876;SDS011;35771;48.978;9.294;2022-09-12T11:41:29;2.90;;;1.30;;
49876;SDS011;35771;48.978;9.294;2022-09-12T11:43:59;1.58;;;1.38;;
49876;SDS011;35771;48.978;9.294;2022-09-12T11:46:33;5.90;;;1.60;;
49876;SDS011;35771;48.978;9.294;2022-09-12T11:49:04;2.50;;;1.60;;
49876;SDS011;35771;48.978;9.294;2022-09-12T11:51:39;1.42;;;1.33;;
49876;SDS011;35771;48.978;9.294;2022-09-12T11:54:13;2.10;;;1.42;;
49876;SDS011;35771;48.978;9.294;2022-09-12T11:56:46;5.85;;;1.30;;
49876;SDS011;35771;48.978;9.294;2022-09-12T12:01:52;2.42;;;1.38;;
49876;SDS011;35771;48.978;9.294;2022-09-12T12:04:26;1.40;;;1.00;;
49876;SDS011;35771;48.978;9.294;2022-09-12T12:07:00;2.38;;;0.90;;
49876;SDS011;35771;48.978;9.294;2022-09-12T12:09:31;1.15;;;1.00;;
49876;SDS011;35771;48.978;9.294;2022-09-12T12:11:59;4.68;;;1.20;;
49876;SDS011;35771;48.978;9.294;2022-09-12T12:14:34;4.05;;;1.30;;
49876;SDS011;35771;48.978;9.294;2022-09-12T12:17:03;4.80;;;1.27;;
49876;SDS011;35771;48.978;9.294;2022-09-12T12:19:37;3.22;;;1.20;;
49876;SDS011;35771;48.978;9.294;2022-09-12T12:22:07;1.60;;;1.15;;
49876;SDS011;35771;48.978;9.294;2022-09-12T12:24:58;1.48;;;1.00;;
49876;SDS011;35771;48.978;9.294;2022-09-12T12:27:46;1.15;;;1.05;;
49876;SDS011;35771;48.978;9.294;2022-09-12T12:36:27;1.10;;;0.90;;
49876;SDS011;35771;48.978;9.294;2022-09-12T12:51:34;0.88;;;0.88;;
49876;SDS011;35771;48.978;9.294;2022-09-12T12:54:04;1.20;;;1.00;;
49876;SDS011;35771;48.978;9.294;2022-09-12T12:56:59;0.88;;;0.88;;
49876;SDS011;35771;48.978;9.294;2022-09-12T12:59:26;2.08;;;1.00;;
49876;SDS011;35771;48.978;9.294;2022-09-12T13:01:54;1.00;;;0.90;;
49876;SDS011;35771;48.978;9.294;2022-09-12T13:04:24;1.05;;;0.88;;
49876;SDS011;35771;48.978;9.294;2022-09-12T13:09:23;1.73;;;0.98;;
49876;SDS011;35771;48.978;9.294;2022-09-12T13:11:56;1.52;;;0.70;;
49876;SDS011;35771;48.978;9.294;2022-09-12T13:14:36;1.10;;;1.00;;
49876;SDS011;35771;48.978;9.294;2022-09-12T13:17:16;0.80;;;0.63;;
49876;SDS011;35771;48.978;9.294;2022-09-12T13:19:49;1.88;;;0.68;;
49876;SDS011;35771;48.978;9.294;2022-09-12T13:22:20;1.52;;;0.82;;
49876;SDS011;35771;48.978;9.294;2022-09-12T13:24:48;1.95;;;0.85;;
49876;SDS011;35771;48.978;9.294;2022-09-12T13:27:17;1.73;;;0.90;;
49876;SDS011;35771;48.978;9.294;2022-09-12T13:29:45;1.70;;;0.80;;
49876;SDS011;35771;48.978;9.294;2022-09-12T13:32:11;3.83;;;0.68;;
49876;SDS011;35771;48.978;9.294;2022-09-12T13:34:43;0.75;;;0.75;;
49876;SDS011;35771;48.978;9.294;2022-09-12T13:37:25;0.90;;;0.90;;
49876;SDS011;35771;48.978;9.294;2022-09-12T13:40:09;2.13;;;1.17;;
49876;SDS011;35771;48.978;9.294;2022-09-12T13:42:50;1.95;;;1.17;;
49876;SDS011;35771;48.978;9.294;2022-09-12T13:45:31;1.25;;;1.10;;
49876;SDS011;35771;48.978;9.294;2022-09-12T13:48:02;1.20;;;1.00;;
49876;SDS011;35771;48.978;9.294;2022-09-12T13:50:35;1.20;;;0.90;;
49876;SDS011;35771;48.978;9.294;2022-09-12T13:53:06;0.90;;;0.90;;
49876;SDS011;35771;48.978;9.294;2022-09-12T13:55:39;1.05;;;0.98;;
49876;SDS011;35771;48.978;9.294;2022-09-12T13:58:14;5.70;;;1.07;;
49876;SDS011;35771;48.978;9.294;2022-09-12T14:00:44;0.80;;;0.80;;
49876;SDS011;35771;48.978;9.294;2022-09-12T14:03:27;1.90;;;0.80;;
49876;SDS011;35771;48.978;9.294;2022-09-12T14:06:14;1.05;;;0.95;;
49876;SDS011;35771;48.978;9.294;2022-09-12T14:08:43;0.85;;;0.82;;
49876;SDS011;35771;48.978;9.294;2022-09-12T14:11:15;0.95;;;0.88;;
49876;SDS011;35771;48.978;9.294;2022-09-12T14:13:48;1.23;;;1.00;;
49876;SDS011;35771;48.978;9.294;2022-09-12T14:16:16;0.70;;;0.70;;
49876;SDS011;35771;48.978;9.294;2022-09-12T14:18:45;0.90;;;0.85;;
49876;SDS011;35771;48.978;9.294;2022-09-12T14:21:18;2.50;;;1.10;;
49876;SDS011;35771;48.978;9.294;2022-09-12T14:23:55;0.90;;;0.90;;
49876;SDS011;35771;48.978;9.294;2022-09-12T14:26:22;0.90;;;0.90;;
49876;SDS011;35771;48.978;9.294;2022-09-12T14:28:52;1.30;;;1.05;;
49876;SDS011;35771;48.978;9.294;2022-09-12T14:31:21;2.28;;;1.02;;
49876;SDS011;35771;48.978;9.294;2022-09-12T14:33:51;4.38;;;1.08;;
49876;SDS011;35771;48.978;9.294;2022-09-12T14:36:25;1.83;;;1.20;;
49876;SDS011;35771;48.978;9.294;2022-09-12T14:38:55;0.75;;;0.70;;
49876;SDS011;35771;48.978;9.294;2022-09-12T14:41:26;6.85;;;1.08;;
49876;SDS011;35771;48.978;9.294;2022-09-12T14:43:56;1.75;;;1.00;;
49876;SDS011;35771;48.978;9.294;2022-09-12T14:46:26;1.45;;;1.00;;
49876;SDS011;35771;48.978;9.294;2022-09-12T14:48:56;2.78;;;1.00;;
49876;SDS011;35771;48.978;9.294;2022-09-12T14:51:30;1.00;;;0.90;;
49876;SDS011;35771;48.978;9.294;2022-09-12T14:54:00;1.73;;;1.13;;
49876;SDS011;35771;48.978;9.294;2022-09-12T14:56:37;2.20;;;1.00;;
49876;SDS011;35771;48.978;9.294;2022-09-12T15:02:13;1.08;;;0.88;;
49876;SDS011;35771;48.978;9.294;2022-09-12T15:04:52;2.28;;;1.33;;
49876;SDS011;35771;48.978;9.294;2022-09-12T15:07:41;1.25;;;1.15;;
49876;SDS011;35771;48.978;9.294;2022-09-12T15:10:17;1.95;;;1.17;;
49876;SDS011;35771;48.978;9.294;2022-09-12T15:12:47;0.85;;;0.85;;
49876;SDS011;35771;48.978;9.294;2022-09-12T15:15:14;1.88;;;1.30;;
49876;SDS011;35771;48.978;9.294;2022-09-12T15:17:42;1.02;;;1.00;;
49876;SDS011;35771;48.978;9.294;2022-09-12T15:20:09;0.95;;;0.90;;
49876;SDS011;35771;48.978;9.294;2022-09-12T15:22:36;4.32;;;0.80;;
49876;SDS011;35771;48.978;9.294;2022-09-12T15:25:06;0.88;;;0.80;;
49876;SDS011;35771;48.978;9.294;2022-09-12T15:27:33;1.40;;;0.90;;
49876;SDS011;35771;48.978;9.294;2022-09-12T15:29:59;1.33;;;1.13;;
49876;SDS011;35771;48.978;9.294;2022-09-12T15:32:27;1.10;;;0.90;;
49876;SDS011;35771;48.978;9.294;2022-09-12T15:34:55;0.95;;;0.90;;
49876;SDS011;35771;48.978;9.294;2022-09-12T15:37:27;1.08;;;0.98;;
49876;SDS011;35771;48.978;9.294;2022-09-12T15:39:56;0.90;;;0.90;;
49876;SDS011;35771;48.978;9.294;2022-09-12T15:42:31;1.00;;;0.90;;
49876;SDS011;35771;48.978;9.294;2022-09-12T15:44:58;1.50;;;0.73;;
49876;SDS011;35771;48.978;9.294;2022-09-12T15:47:24;1.73;;;1.00;;
49876;SDS011;35771;48.978;9.294;2022-09-12T15:49:51;1.10;;;0.95;;
49876;SDS011;35771;48.978;9.294;2022-09-12T15:52:18;1.13;;;0.93;;